Little Clacton, United Kingdom
Current Conditions -  °F | °C
As of 8:50 PM on Sunday 23 Nov 2014 (Local Time) from EGUW Reporting Station
Broken Clouds Broken Clouds  
Wind Chill: 39°   Ceiling: 1100
Heat Index: 43°   Visibility: 6mi
Dew Point: 43°   Wind: 7mph
Humidity: 100%   Direction: 260°W
Pressure: 30.06"   Gusts: NA
Location:  51.83°N, 1.14°E
Report Text: EGUW 232050Z 26006KT 9999 BKN011 06/06 Q1018 GRN BECMG FEW010 BLU
Loading
Personal Weather Stations






























Interactive Weather Map New forecast layout! Learn more

10-Day Weather Forecast

Advertisements
Track Severe Weather on mobile